Time;durP1;ratioP1;P1;durP2;ratioP2;P2;SDS_P1;SDS_P2;PMS_P1;PMS_P2;Temp;Humidity;BMP_temperature;BMP_pressure;BME280_temperature;BME280_humidity;BME280_pressure;Samples;Min_cycle;Max_cycle;Signal;HPM_P1;HPM_P2
2024/01/05 00:02:13;;;;;;;17.03;8.37;;;0.70;99.90;;;;;;5032933;28;20237;-53
2024/01/05 00:04:38;;;;;;;17.03;8.60;;;0.70;99.90;;;;;;5033305;28;20520;-53
2024/01/05 00:07:04;;;;;;;12.33;7.30;;;0.70;6.50;;;;;;4843497;28;5468582;-53
2024/01/05 00:09:29;;;;;;;17.57;8.50;;;0.60;1.00;;;;;;5034090;28;20721;-52
2024/01/05 00:11:55;;;;;;;15.37;8.17;;;0.60;33.50;;;;;;5032790;28;20726;-53
2024/01/05 00:14:21;;;;;;;15.30;8.87;;;0.60;62.90;;;;;;5033711;28;20187;-54
2024/01/05 00:16:47;;;;;;;13.90;8.50;;;0.60;99.90;;;;;;5034309;28;20711;-53
2024/01/05 00:19:12;;;;;;;13.20;7.90;;;0.60;95.80;;;;;;5034204;28;20415;-53
2024/01/05 00:21:38;;;;;;;15.00;9.33;;;0.60;99.90;;;;;;5033930;28;20604;-53
2024/01/05 00:24:04;;;;;;;16.57;8.00;;;0.60;99.90;;;;;;5033878;28;20179;-53
2024/01/05 00:26:29;;;;;;;13.67;8.67;;;0.60;99.90;;;;;;5033565;28;20580;-53
2024/01/05 00:28:55;;;;;;;15.37;8.30;;;0.60;99.90;;;;;;5039169;28;20190;-54
2024/01/05 00:31:20;;;;;;;17.40;8.80;;;0.70;99.90;;;;;;5053689;28;20262;-54
2024/01/05 00:33:46;;;;;;;12.03;7.83;;;0.60;99.90;;;;;;5040485;28;20191;-52
2024/01/05 00:36:12;;;;;;;15.23;8.50;;;0.60;99.90;;;;;;5033075;28;20187;-52
2024/01/05 00:38:38;;;;;;;14.80;8.70;;;0.60;99.90;;;;;;5033378;28;20424;-52
2024/01/05 00:41:05;;;;;;;16.80;8.97;;;0.60;99.90;;;;;;5033237;28;20651;-52
2024/01/05 00:43:30;;;;;;;14.13;8.23;;;0.60;99.90;;;;;;5031514;28;20946;-53
2024/01/05 00:45:56;;;;;;;14.00;8.57;;;0.70;99.90;;;;;;5033307;28;20529;-53
2024/01/05 00:48:22;;;;;;;17.43;8.40;;;0.60;99.90;;;;;;5032567;28;20230;-53
2024/01/05 00:50:48;;;;;;;16.10;9.03;;;0.60;99.90;;;;;;5033345;28;20191;-53
2024/01/05 00:53:14;;;;;;;17.40;9.20;;;0.60;99.90;;;;;;5033162;28;20190;-53
2024/01/05 00:55:40;;;;;;;19.37;8.30;;;0.60;99.90;;;;;;5033308;28;20410;-53
2024/01/05 00:58:05;;;;;;;14.80;8.53;;;0.60;1.00;;;;;;5032746;28;20686;-53
2024/01/05 01:00:31;;;;;;;15.10;8.60;;;0.60;1.00;;;;;;5032016;28;20191;-53
2024/01/05 01:02:57;;;;;;;13.03;8.10;;;0.70;1.00;;;;;;5033206;28;20188;-53
2024/01/05 01:05:23;;;;;;;14.40;8.13;;;0.70;1.00;;;;;;5032981;28;20410;-54
2024/01/05 01:07:48;;;;;;;15.83;8.53;;;0.70;1.00;;;;;;5032875;28;20722;-53
2024/01/05 01:10:15;;;;;;;16.07;7.97;;;0.70;1.00;;;;;;5033024;28;20187;-53
2024/01/05 01:12:41;;;;;;;14.10;8.30;;;0.70;99.90;;;;;;5032424;28;20184;-53
2024/01/05 01:15:07;;;;;;;16.03;8.10;;;0.70;99.90;;;;;;5032942;28;20429;-53
2024/01/05 01:17:33;;;;;;;12.40;7.50;;;0.80;99.90;;;;;;5032744;28;20203;-53
2024/01/05 01:19:58;;;;;;;13.40;8.07;;;0.70;99.90;;;;;;5031501;28;20530;-53
2024/01/05 01:22:24;;;;;;;13.57;7.90;;;0.70;99.90;;;;;;5032683;28;20838;-53
2024/01/05 01:24:50;;;;;;;10.70;7.00;;;0.70;99.90;;;;;;5033083;28;20180;-53
2024/01/05 01:27:16;;;;;;;14.00;8.40;;;0.80;99.90;;;;;;5032451;28;20183;-53
2024/01/05 01:29:42;;;;;;;12.90;7.67;;;0.80;99.90;;;;;;5032567;28;20476;-53
2024/01/05 01:32:09;;;;;;;12.50;7.20;;;0.80;99.90;;;;;;5032497;28;20184;-53
2024/01/05 01:34:35;;;;;;;14.03;8.40;;;0.80;99.90;;;;;;5031586;28;20194;-53
2024/01/05 01:37:00;;;;;;;13.60;7.67;;;0.70;99.90;;;;;;5032151;28;20466;-53
2024/01/05 01:39:26;;;;;;;13.40;8.50;;;0.70;99.90;;;;;;5032330;28;20424;-53
2024/01/05 01:41:51;;;;;;;13.57;7.37;;;0.70;99.90;;;;;;5032043;28;20241;-54
2024/01/05 01:44:17;;;;;;;14.87;7.30;;;0.80;99.90;;;;;;5032828;28;20183;-53
2024/01/05 01:46:43;;;;;;;16.63;7.80;;;0.80;99.90;;;;;;5032182;28;20191;-53
2024/01/05 01:49:09;;;;;;;15.30;7.73;;;0.80;99.90;;;;;;5032188;28;20190;-53
2024/01/05 01:51:35;;;;;;;12.93;7.00;;;0.80;99.90;;;;;;5029580;28;20192;-53
2024/01/05 01:54:04;;;;;;;16.47;8.57;;;0.70;99.90;;;;;;5032428;28;20185;-53
2024/01/05 01:56:31;;;;;;;11.73;7.00;;;0.70;99.90;;;;;;5032312;28;20478;-53
2024/01/05 01:58:57;;;;;;;12.40;7.83;;;0.70;99.90;;;;;;5032400;28;20446;-53
2024/01/05 02:01:23;;;;;;;14.17;7.73;;;0.70;99.90;;;;;;5032529;28;20462;-53
2024/01/05 02:03:49;;;;;;;12.00;7.43;;;0.70;99.90;;;;;;5032331;28;20422;-53
2024/01/05 02:06:14;;;;;;;14.43;8.00;;;0.60;99.90;;;;;;5029826;28;20471;-53
2024/01/05 02:08:40;;;;;;;11.13;6.77;;;0.60;99.90;;;;;;5032346;28;20178;-52
2024/01/05 02:11:06;;;;;;;11.00;7.37;;;0.70;99.90;;;;;;5032258;28;20654;-52
2024/01/05 02:13:33;;;;;;;12.90;7.40;;;0.70;99.90;;;;;;5031636;28;20560;-51
2024/01/05 02:15:59;;;;;;;15.97;8.17;;;0.70;1.00;;;;;;5032264;28;20187;-52
2024/01/05 02:18:24;;;;;;;13.80;7.80;;;0.70;99.90;;;;;;5031940;28;20473;-52
2024/01/05 02:20:50;;;;;;;11.30;7.27;;;0.70;99.90;;;;;;5032152;28;20183;-52
2024/01/05 02:23:34;;;;;;;14.97;8.20;;;0.70;99.90;;;;;;5029087;28;20652;-52
2024/01/05 02:26:00;;;;;;;17.30;8.23;;;0.70;99.90;;;;;;5032200;28;20174;-51
2024/01/05 02:28:26;;;;;;;14.60;7.97;;;0.70;1.00;;;;;;5032174;28;20430;-52
2024/01/05 02:30:56;;;;;;;15.20;8.03;;;0.70;1.00;;;;;;5030805;28;20486;-52
2024/01/05 02:33:22;;;;;;;14.90;7.90;;;0.80;1.00;;;;;;5031990;28;20452;-52
2024/01/05 02:35:48;;;;;;;20.20;7.80;;;0.70;1.00;;;;;;5032298;28;20817;-52
2024/01/05 02:38:13;;;;;;;16.30;8.10;;;0.70;1.00;;;;;;5031373;28;20478;-51
2024/01/05 02:40:39;;;;;;;16.40;9.20;;;0.80;1.00;;;;;;5031954;28;20582;-52
2024/01/05 02:43:05;;;;;;;13.57;7.80;;;0.80;1.00;;;;;;5031934;28;20189;-51
2024/01/05 02:45:32;;;;;;;13.37;8.00;;;0.80;1.00;;;;;;5031651;28;20764;-52
2024/01/05 02:47:57;;;;;;;15.43;8.40;;;0.80;1.00;;;;;;5030526;28;20657;-52
2024/01/05 02:50:23;;;;;;;15.80;8.87;;;0.80;1.00;;;;;;5031350;28;20525;-53
2024/01/05 02:52:48;;;;;;;13.90;7.97;;;0.80;1.00;;;;;;5031729;28;20186;-51
2024/01/05 02:55:14;;;;;;;17.77;9.10;;;0.80;1.00;;;;;;5031859;28;20176;-52
2024/01/05 02:57:41;;;;;;;13.43;8.03;;;0.80;1.00;;;;;;5031547;28;20211;-51
2024/01/05 03:00:07;;;;;;;15.70;8.90;;;0.90;1.00;;;;;;5032586;28;20195;-52
2024/01/05 03:02:33;;;;;;;21.30;9.30;;;0.90;1.00;;;;;;5033668;28;20525;-53
2024/01/05 03:04:58;;;;;;;22.63;9.13;;;0.80;1.00;;;;;;5035048;28;20465;-53
2024/01/05 03:07:24;;;;;;;21.70;8.93;;;0.80;1.00;;;;;;5034538;28;20223;-53
2024/01/05 03:09:51;;;;;;;16.23;8.30;;;0.80;99.90;;;;;;5035549;28;20224;-52
2024/01/05 03:12:17;;;;;;;15.73;8.77;;;0.80;99.90;;;;;;5035244;28;20838;-53
2024/01/05 03:14:43;;;;;;;17.90;8.90;;;0.80;99.90;;;;;;5034977;28;20939;-53
2024/01/05 03:17:09;;;;;;;17.40;9.63;;;0.80;99.90;;;;;;5034926;28;20468;-52
2024/01/05 03:19:34;;;;;;;18.83;8.80;;;0.80;99.90;;;;;;5033233;28;20675;-53
2024/01/05 03:22:00;;;;;;;19.13;8.30;;;0.80;1.00;;;;;;5035070;28;20518;-53
2024/01/05 03:24:26;;;;;;;14.97;8.23;;;0.80;1.00;;;;;;5035229;28;20179;-53
2024/01/05 03:26:51;;;;;;;17.00;9.00;;;0.90;1.00;;;;;;5034775;28;20202;-53
2024/01/05 03:29:17;;;;;;;18.10;8.20;;;0.80;1.00;;;;;;5034801;28;20183;-53
2024/01/05 03:31:46;;;;;;;19.83;9.10;;;0.80;1.00;;;;;;5033394;28;20191;-53
2024/01/05 03:34:13;;;;;;;17.67;8.33;;;0.80;1.00;;;;;;5034959;28;20190;-53
2024/01/05 03:36:39;;;;;;;18.00;9.00;;;0.80;1.00;;;;;;5034447;28;20462;-53
2024/01/05 03:39:06;;;;;;;18.20;9.73;;;0.80;1.00;;;;;;5033959;28;20778;-54
2024/01/05 03:41:32;;;;;;;14.77;8.37;;;0.80;1.00;;;;;;5034743;28;20440;-54
2024/01/05 03:43:58;;;;;;;18.90;9.43;;;0.70;58.50;;;;;;5034798;28;20765;-54
2024/01/05 03:46:23;;;;;;;12.20;7.40;;;0.70;99.90;;;;;;5034943;28;20257;-54
2024/01/05 03:48:49;;;;;;;18.13;8.70;;;0.80;99.90;;;;;;5032752;28;20204;-54
2024/01/05 03:51:14;;;;;;;15.87;8.63;;;0.80;99.90;;;;;;5034248;28;20188;-54
2024/01/05 03:53:40;;;;;;;18.03;7.97;;;0.80;96.20;;;;;;5034260;28;20180;-54
2024/01/05 03:56:06;;;;;;;21.20;9.23;;;0.80;74.00;;;;;;5034217;28;20234;-54
2024/01/05 03:58:31;;;;;;;13.63;7.97;;;0.80;1.00;;;;;;5034017;28;20250;-52
2024/01/05 04:00:57;;;;;;;18.47;9.03;;;0.80;67.10;;;;;;5034087;28;20430;-53
2024/01/05 04:03:23;;;;;;;15.57;8.20;;;0.80;99.90;;;;;;5034713;28;20175;-52
2024/01/05 04:05:49;;;;;;;19.57;8.10;;;0.80;1.00;;;;;;5033067;28;20183;-52
2024/01/05 04:08:15;;;;;;;12.23;7.23;;;0.80;1.00;;;;;;5034231;28;20235;-52
2024/01/05 04:10:40;;;;;;;17.20;8.23;;;0.80;1.00;;;;;;5032429;28;20856;-52
2024/01/05 04:13:06;;;;;;;18.97;8.70;;;0.90;99.90;;;;;;5032970;28;20181;-53
2024/01/05 04:15:36;;;;;;;18.20;7.90;;;0.90;1.00;;;;;;5034232;28;20274;-53
2024/01/05 04:18:01;;;;;;;18.27;7.80;;;0.80;1.00;;;;;;5033720;28;20262;-54
2024/01/05 04:20:27;;;;;;;15.20;7.83;;;0.80;34.10;;;;;;5033343;28;20434;-54
2024/01/05 04:22:53;;;;;;;14.27;7.53;;;0.80;28.40;;;;;;5032481;28;20194;-54
2024/01/05 04:25:18;;;;;;;14.70;8.50;;;0.80;69.60;;;;;;5033894;28;20200;-53
2024/01/05 04:27:44;;;;;;;18.23;8.27;;;0.80;1.00;;;;;;5033779;28;20671;-53
2024/01/05 04:30:10;;;;;;;13.23;7.50;;;0.70;1.00;;;;;;5031652;28;20183;-53
2024/01/05 04:32:36;;;;;;;16.33;8.47;;;0.70;99.90;;;;;;5033355;28;20214;-53
2024/01/05 04:35:01;;;;;;;24.63;9.87;;;0.70;1.00;;;;;;5033186;28;20939;-53
2024/01/05 04:37:29;;;;;;;15.90;8.23;;;0.70;1.00;;;;;;5033603;28;20462;-54
2024/01/05 04:39:54;;;;;;;19.20;7.60;;;0.70;1.00;;;;;;5033408;28;20770;-53
2024/01/05 04:42:20;;;;;;;17.37;8.30;;;0.70;1.00;;;;;;5033503;28;20504;-54
2024/01/05 04:44:46;;;;;;;17.60;7.93;;;0.70;99.90;;;;;;5033653;28;20186;-54
2024/01/05 04:47:11;;;;;;;16.97;8.40;;;0.70;97.80;;;;;;5032127;28;20747;-54
2024/01/05 04:49:37;;;;;;;17.00;8.00;;;0.70;99.90;;;;;;5033066;28;20194;-54
2024/01/05 04:52:02;;;;;;;18.67;8.60;;;0.70;1.00;;;;;;5033406;28;20590;-54
2024/01/05 04:54:28;;;;;;;15.50;9.30;;;0.70;1.00;;;;;;5033414;28;20538;-55
2024/01/05 04:56:54;;;;;;;16.27;9.30;;;0.70;1.00;;;;;;5013543;28;20212;-54
2024/01/05 04:59:22;;;;;;;18.10;8.87;;;0.70;46.20;;;;;;5021027;28;20180;-54
2024/01/05 05:01:48;;;;;;;17.23;8.47;;;0.70;1.00;;;;;;5032301;28;20180;-54
2024/01/05 05:04:16;;;;;;;17.80;9.00;;;0.70;99.90;;;;;;5031741;28;20488;-54
2024/01/05 05:06:41;;;;;;;15.40;7.93;;;0.70;99.90;;;;;;5032652;28;20237;-54
2024/01/05 05:09:08;;;;;;;16.20;8.83;;;0.70;99.90;;;;;;5032790;28;20800;-54
2024/01/05 05:11:34;;;;;;;14.90;7.77;;;0.70;99.90;;;;;;5032725;28;20646;-54
2024/01/05 05:14:00;;;;;;;16.80;8.33;;;0.60;99.90;;;;;;5033082;28;20418;-55
2024/01/05 05:16:25;;;;;;;16.77;8.50;;;0.60;1.00;;;;;;5033189;28;20180;-54
2024/01/05 05:18:51;;;;;;;15.20;8.70;;;0.60;14.70;;;;;;5030955;28;20187;-54
2024/01/05 05:21:16;;;;;;;19.50;8.50;;;0.60;99.90;;;;;;5032544;28;20196;-54
2024/01/05 05:23:42;;;;;;;16.30;9.07;;;0.60;99.90;;;;;;5032398;28;20183;-54
2024/01/05 05:26:08;;;;;;;23.83;9.13;;;0.70;1.00;;;;;;5032875;28;20191;-54
2024/01/05 05:28:33;;;;;;;15.00;7.70;;;0.70;1.00;;;;;;5032633;28;20188;-54
2024/01/05 05:30:59;;;;;;;15.77;8.23;;;0.70;1.00;;;;;;5030271;28;20187;-55
2024/01/05 05:33:25;;;;;;;19.63;8.10;;;0.70;1.00;;;;;;5032439;28;20559;-53
2024/01/05 05:35:50;;;;;;;24.07;8.13;;;0.60;2.90;;;;;;5032672;28;20472;-54
2024/01/05 05:38:16;;;;;;;16.03;8.37;;;0.60;99.90;;;;;;5048062;28;20315;-54
2024/01/05 05:40:41;;;;;;;22.50;9.63;;;0.60;1.00;;;;;;5031659;28;20221;-54
2024/01/05 05:43:07;;;;;;;15.63;8.13;;;0.70;1.00;;;;;;5032608;28;20560;-54
2024/01/05 05:45:32;;;;;;;16.97;7.70;;;0.70;1.00;;;;;;5032326;28;20190;-54
2024/01/05 05:47:59;;;;;;;15.27;8.73;;;0.70;99.90;;;;;;5030938;28;20238;-54
2024/01/05 05:50:24;;;;;;;17.47;9.13;;;0.70;1.00;;;;;;5031774;28;20592;-53
2024/01/05 05:52:51;;;;;;;17.93;7.87;;;0.70;1.00;;;;;;5032499;28;20471;-53
2024/01/05 05:55:17;;;;;;;17.20;9.20;;;0.60;1.00;;;;;;5032466;28;20183;-53
2024/01/05 05:57:43;;;;;;;17.87;8.40;;;0.60;99.90;;;;;;5032049;28;20960;-54
2024/01/05 06:00:10;;;;;;;13.50;7.00;;;0.60;1.00;;;;;;5032209;28;20430;-54
2024/01/05 06:02:37;;;;;;;24.80;8.17;;;0.60;99.90;;;;;;5030989;28;20307;-53
2024/01/05 06:05:03;;;;;;;13.83;7.50;;;0.70;99.90;;;;;;5016262;28;20460;-53
2024/01/05 06:07:29;;;;;;;13.00;6.63;;;0.70;99.90;;;;;;5032302;28;20473;-54
2024/01/05 06:09:54;;;;;;;11.97;6.90;;;0.60;33.90;;;;;;5032621;28;20440;-54
2024/01/05 06:12:20;;;;;;;14.90;8.20;;;0.60;70.50;;;;;;5031967;28;20274;-51
2024/01/05 06:14:45;;;;;;;15.33;7.83;;;0.60;99.90;;;;;;5032143;28;20651;-54
2024/01/05 06:17:11;;;;;;;19.17;8.20;;;0.60;1.00;;;;;;5032221;28;20269;-53
2024/01/05 06:19:37;;;;;;;14.97;8.30;;;0.60;1.00;;;;;;5030495;28;20635;-53
2024/01/05 06:22:02;;;;;;;14.70;8.13;;;0.60;99.90;;;;;;5031564;28;20666;-54
2024/01/05 06:24:29;;;;;;;16.43;7.50;;;0.70;1.00;;;;;;5032258;28;20175;-54
2024/01/05 06:26:54;;;;;;;16.40;7.80;;;0.60;99.90;;;;;;5031973;28;20191;-53
2024/01/05 06:29:20;;;;;;;13.77;7.27;;;0.60;99.90;;;;;;5031753;28;20940;-53
2024/01/05 06:31:46;;;;;;;14.30;7.63;;;0.60;99.90;;;;;;5030203;28;20502;-54
2024/01/05 06:34:11;;;;;;;17.07;7.30;;;0.60;99.90;;;;;;5032129;28;20239;-54
2024/01/05 06:36:37;;;;;;;13.80;7.50;;;0.60;99.90;;;;;;5035268;28;20223;-54
2024/01/05 06:39:03;;;;;;;14.13;8.00;;;0.60;1.00;;;;;;5034887;28;20188;-53
2024/01/05 06:41:28;;;;;;;14.90;7.10;;;0.60;1.00;;;;;;5036847;28;20527;-54
2024/01/05 06:43:54;;;;;;;14.30;7.80;;;0.60;1.00;;;;;;5035990;28;20203;-52
2024/01/05 06:46:19;;;;;;;15.00;8.73;;;0.60;70.90;;;;;;5034630;28;20193;-52
2024/01/05 06:48:45;;;;;;;14.03;7.60;;;0.60;99.90;;;;;;5034637;28;20628;-52
2024/01/05 06:51:10;;;;;;;13.73;7.30;;;0.60;99.90;;;;;;5033789;28;20644;-52
2024/01/05 06:53:36;;;;;;;14.07;8.07;;;0.70;99.90;;;;;;5035621;28;20624;-52
2024/01/05 06:56:02;;;;;;;14.43;7.80;;;0.70;99.90;;;;;;5034975;28;20706;-52
2024/01/05 06:58:27;;;;;;;16.70;7.90;;;0.70;93.60;;;;;;5034603;28;20507;-52
2024/01/05 07:00:53;;;;;;;12.90;6.90;;;0.60;25.80;;;;;;5035355;28;20183;-52
2024/01/05 07:03:19;;;;;;;15.83;7.03;;;0.60;1.00;;;;;;5035212;28;20184;-52
2024/01/05 07:05:45;;;;;;;15.10;8.03;;;0.60;72.50;;;;;;5036219;28;20238;-52
2024/01/05 07:08:11;;;;;;;15.77;8.20;;;0.60;99.90;;;;;;5033582;28;20255;-52
2024/01/05 07:10:37;;;;;;;14.13;8.87;;;0.60;99.90;;;;;;5035107;28;20438;-53
2024/01/05 07:13:06;;;;;;;19.40;7.73;;;0.60;99.90;;;;;;5034862;28;20188;-53
2024/01/05 07:15:32;;;;;;;16.63;7.70;;;0.60;99.90;;;;;;5034959;28;20214;-53
2024/01/05 07:17:57;;;;;;;14.10;7.40;;;0.60;99.90;;;;;;5035475;28;20458;-52
2024/01/05 07:20:23;;;;;;;16.97;7.47;;;0.60;99.90;;;;;;5027474;28;20242;-53
2024/01/05 07:22:49;;;;;;;15.60;7.70;;;0.60;48.20;;;;;;5034316;28;20187;-52
2024/01/05 07:25:14;;;;;;;18.37;8.60;;;0.70;69.20;;;;;;5033397;28;20190;-53
2024/01/05 07:27:40;;;;;;;13.87;7.53;;;0.70;1.00;;;;;;5034726;28;20188;-53
2024/01/05 07:30:06;;;;;;;46.90;8.33;;;0.60;1.00;;;;;;5034632;28;20188;-53
2024/01/05 07:32:32;;;;;;;14.13;7.70;;;0.60;1.00;;;;;;5033380;28;20191;-53
2024/01/05 07:34:58;;;;;;;13.97;6.90;;;0.60;1.00;;;;;;5034736;28;20422;-53
2024/01/05 07:37:24;;;;;;;17.90;7.90;;;0.60;99.90;;;;;;5034685;28;20257;-52
2024/01/05 07:39:50;;;;;;;15.80;7.47;;;0.60;99.90;;;;;;5033954;28;20445;-52
2024/01/05 07:42:15;;;;;;;14.53;7.50;;;0.60;99.90;;;;;;5020497;28;20426;-52
2024/01/05 07:44:41;;;;;;;12.77;6.90;;;0.60;99.90;;;;;;5034868;28;20176;-52
2024/01/05 07:47:08;;;;;;;13.27;7.83;;;0.60;99.90;;;;;;5033712;28;20198;-51
2024/01/05 07:49:34;;;;;;;13.27;6.97;;;0.60;99.90;;;;;;5033574;28;20203;-52
2024/01/05 07:52:00;;;;;;;12.50;7.00;;;0.60;99.90;;;;;;5033735;28;20425;-52
2024/01/05 07:54:26;;;;;;;17.67;7.40;;;0.60;99.90;;;;;;5034733;28;20178;-51
2024/01/05 07:56:51;;;;;;;12.17;7.37;;;0.60;99.90;;;;;;5043696;28;20246;-52
2024/01/05 07:59:17;;;;;;;13.93;7.50;;;0.50;99.90;;;;;;5033744;28;20183;-52
2024/01/05 08:01:43;;;;;;;14.83;7.37;;;0.60;99.90;;;;;;5036515;28;20187;-52
2024/01/05 08:04:09;;;;;;;12.43;6.63;;;0.60;99.90;;;;;;5048640;28;20179;-51
2024/01/05 08:06:34;;;;;;;14.40;7.53;;;0.60;81.40;;;;;;5052904;28;20526;-52
2024/01/05 08:09:00;;;;;;;15.30;6.87;;;0.60;22.20;;;;;;5032470;28;20671;-52
2024/01/05 08:11:26;;;;;;;11.57;7.20;;;0.60;21.20;;;;;;5044242;28;20542;-52
2024/01/05 08:13:51;;;;;;;11.93;6.80;;;0.60;35.40;;;;;;5027382;28;20195;-51
2024/01/05 08:16:17;;;;;;;14.70;7.50;;;0.60;1.00;;;;;;5033861;28;20483;-52
2024/01/05 08:18:43;;;;;;;13.10;7.80;;;0.60;1.00;;;;;;5031295;28;20227;-52
2024/01/05 08:21:09;;;;;;;11.77;6.97;;;0.60;1.00;;;;;;5030990;28;20211;-51
2024/01/05 08:23:35;;;;;;;14.40;6.40;;;0.60;1.00;;;;;;5028066;28;20198;-51
2024/01/05 08:26:01;;;;;;;12.23;7.00;;;0.60;1.00;;;;;;5033619;28;20576;-53
2024/01/05 08:28:27;;;;;;;11.70;6.90;;;0.60;1.00;;;;;;5034397;28;20187;-52
2024/01/05 08:30:53;;;;;;;15.60;7.73;;;0.60;1.00;;;;;;5033899;28;20994;-52
2024/01/05 08:33:19;;;;;;;12.90;6.70;;;0.60;1.00;;;;;;5030919;28;20217;-52
2024/01/05 08:35:45;;;;;;;11.87;6.93;;;0.60;99.90;;;;;;5030466;28;20441;-53
2024/01/05 08:38:10;;;;;;;13.20;7.00;;;0.50;99.90;;;;;;5037382;28;20218;-52
2024/01/05 08:40:36;;;;;;;11.13;6.60;;;0.50;1.00;;;;;;5039326;28;20527;-51
2024/01/05 08:43:02;;;;;;;12.70;7.40;;;0.50;1.00;;;;;;5035813;28;20186;-52
2024/01/05 08:45:29;;;;;;;11.87;6.87;;;0.50;1.00;;;;;;5040276;28;20541;-55
2024/01/05 08:47:55;;;;;;;12.00;6.37;;;0.50;1.00;;;;;;5047856;28;20433;-52
2024/01/05 08:50:20;;;;;;;11.83;6.43;;;0.50;99.90;;;;;;5029981;28;20433;-53
2024/01/05 08:52:46;;;;;;;12.33;6.43;;;0.50;99.90;;;;;;5040673;28;20209;-52
2024/01/05 08:55:16;;;;;;;12.47;6.30;;;0.50;99.90;;;;;;5046658;28;20573;-52
2024/01/05 08:57:42;;;;;;;10.97;6.23;;;0.50;99.90;;;;;;5037252;28;20535;-53
2024/01/05 09:00:10;;;;;;;11.63;7.20;;;0.60;99.90;;;;;;5049310;28;20425;-52
2024/01/05 09:02:37;;;;;;;11.47;6.80;;;0.60;1.00;;;;;;5039116;28;20517;-53
2024/01/05 09:05:06;;;;;;;17.50;6.73;;;0.60;99.90;;;;;;5043113;28;20418;-53
2024/01/05 09:07:34;;;;;;;12.97;6.30;;;0.60;1.00;;;;;;5046435;28;20469;-52
2024/01/05 09:10:00;;;;;;;11.07;6.60;;;0.60;1.00;;;;;;5036297;28;20422;-53
2024/01/05 09:12:26;;;;;;;11.60;6.50;;;0.60;99.90;;;;;;5048157;28;20415;-52
2024/01/05 09:14:52;;;;;;;10.73;6.10;;;0.60;99.90;;;;;;5037684;28;20426;-53
2024/01/05 09:17:17;;;;;;;9.40;5.67;;;0.60;99.90;;;;;;5044407;28;20262;-53
2024/01/05 09:19:43;;;;;;;16.13;6.40;;;0.60;99.90;;;;;;5035531;28;20495;-52
2024/01/05 09:22:09;;;;;;;10.70;6.03;;;0.70;99.90;;;;;;5034972;28;20183;-52
2024/01/05 09:24:36;;;;;;;10.80;5.90;;;0.70;99.90;;;;;;5046720;28;20513;-52
2024/01/05 09:27:04;;;;;;;9.47;6.07;;;0.70;1.00;;;;;;5041969;28;20190;-54
2024/01/05 09:29:31;;;;;;;8.13;5.13;;;0.70;99.90;;;;;;5039218;28;20930;-51
2024/01/05 09:31:56;;;;;;;8.37;5.03;;;0.60;1.00;;;;;;5046321;28;20788;-51
2024/01/05 09:34:22;;;;;;;8.47;4.90;;;0.60;1.00;;;;;;5048010;28;20507;-51
2024/01/05 09:36:48;;;;;;;10.47;5.27;;;0.60;99.90;;;;;;5039724;28;20214;-52
2024/01/05 09:39:14;;;;;;;9.27;5.70;;;0.50;99.90;;;;;;5040620;28;20206;-51
2024/01/05 09:41:43;;;;;;;12.10;5.40;;;0.50;99.90;;;;;;5046674;28;20217;-51
2024/01/05 09:44:10;;;;;;;10.27;5.80;;;0.50;99.90;;;;;;5033218;28;20553;-52
2024/01/05 09:46:38;;;;;;;11.70;5.77;;;0.50;99.90;;;;;;5034824;28;20910;-51
2024/01/05 09:49:05;;;;;;;9.37;5.30;;;0.50;99.90;;;;;;5032702;28;20444;-53
2024/01/05 09:51:31;;;;;;;8.77;5.30;;;0.50;99.90;;;;;;5046267;28;20427;-53
2024/01/05 09:53:57;;;;;;;6.87;4.80;;;0.50;99.90;;;;;;5035700;28;20952;-52
2024/01/05 09:56:26;;;;;;;9.73;5.40;;;0.50;99.90;;;;;;5047493;28;20185;-51
2024/01/05 09:58:51;;;;;;;9.17;5.47;;;0.50;99.90;;;;;;5040533;28;20182;-52
2024/01/05 10:01:25;;;;;;;9.83;5.57;;;0.60;1.00;;;;;;5039902;28;20415;-52
2024/01/05 10:03:58;;;;;;;11.20;5.70;;;0.60;99.90;;;;;;5048620;28;20417;-51
2024/01/05 10:06:25;;;;;;;8.73;4.50;;;0.50;7.10;;;;;;5027528;28;20515;-52
2024/01/05 10:08:59;;;;;;;9.97;5.17;;;0.50;24.80;;;;;;5044311;28;20910;-51
2024/01/05 10:11:45;;;;;;;6.57;4.53;;;0.50;1.00;;;;;;5048744;28;20416;-51
2024/01/05 10:14:15;;;;;;;9.43;4.60;;;0.50;1.00;;;;;;5039650;28;20422;-51
2024/01/05 10:16:40;;;;;;;10.80;5.00;;;0.60;1.00;;;;;;5044851;28;20414;-51
2024/01/05 10:19:19;;;;;;;11.80;5.50;;;0.50;99.90;;;;;;5045600;28;20418;-53
2024/01/05 10:21:46;;;;;;;10.33;4.93;;;0.50;1.00;;;;;;5037732;28;20186;-52
2024/01/05 10:24:22;;;;;;;7.27;4.60;;;0.50;99.90;;;;;;5040212;28;20465;-52
2024/01/05 10:27:10;;;;;;;10.17;5.30;;;0.50;99.90;;;;;;5048310;28;21016;-52
2024/01/05 10:29:38;;;;;;;7.63;4.10;;;0.40;99.90;;;;;;5026815;28;20833;-53
2024/01/05 10:32:14;;;;;;;5.73;4.20;;;0.40;99.90;;;;;;5043658;28;20430;-52
2024/01/05 10:34:47;;;;;;;8.10;4.30;;;0.50;99.90;;;;;;5049083;28;20829;-52
2024/01/05 10:37:19;;;;;;;6.60;4.50;;;0.50;99.90;;;;;;5038223;28;20515;-51
2024/01/05 10:39:46;;;;;;;6.20;4.30;;;0.50;91.70;;;;;;5039268;28;20422;-51
2024/01/05 10:42:25;;;;;;;6.40;4.57;;;0.40;84.90;;;;;;5051718;28;20434;-52
2024/01/05 10:44:52;;;;;;;6.80;3.87;;;0.40;99.90;;;;;;5043140;28;20428;-52
2024/01/05 10:47:19;;;;;;;5.50;4.20;;;0.40;99.90;;;;;;5042490;28;20430;-52
2024/01/05 10:49:48;;;;;;;7.70;4.97;;;0.40;99.90;;;;;;5042518;28;20979;-53
2024/01/05 10:52:16;;;;;;;5.93;4.50;;;0.40;99.90;;;;;;5046737;28;20421;-51
2024/01/05 10:54:44;;;;;;;7.67;4.10;;;0.40;1.00;;;;;;5048633;28;20426;-52
2024/01/05 10:57:12;;;;;;;6.90;4.83;;;0.40;1.00;;;;;;5042020;28;20914;-52
2024/01/05 10:59:38;;;;;;;7.23;4.30;;;0.40;1.00;;;;;;5046780;28;20509;-50
2024/01/05 11:02:14;;;;;;;6.97;3.80;;;0.50;1.00;;;;;;5037493;28;20981;-52
2024/01/05 11:04:44;;;;;;;6.50;4.50;;;0.40;99.90;;;;;;5048890;28;20563;-51
2024/01/05 11:07:12;;;;;;;8.70;4.40;;;0.40;99.90;;;;;;5050249;28;20465;-51
2024/01/05 11:09:57;;;;;;;4.40;3.50;;;0.50;99.90;;;;;;5040317;28;20458;-52
2024/01/05 11:12:41;;;;;;;5.67;3.63;;;0.40;1.00;;;;;;5024836;28;20487;-53
2024/01/05 11:15:18;;;;;;;4.63;3.73;;;0.40;1.00;;;;;;5045297;28;20440;-52
2024/01/05 11:18:06;;;;;;;4.37;3.33;;;0.60;1.00;;;;;;5039518;28;20461;-51
2024/01/05 11:21:06;;;;;;;5.33;3.60;;;0.60;1.00;;;;;;5036014;28;20417;-52
2024/01/05 11:23:34;;;;;;;5.43;3.90;;;0.60;99.90;;;;;;5039967;28;20433;-52
2024/01/05 11:26:00;;;;;;;5.17;3.60;;;0.60;99.90;;;;;;5038629;28;20457;-51
2024/01/05 11:28:36;;;;;;;5.03;3.37;;;0.60;99.90;;;;;;5041260;28;20454;-51
2024/01/05 11:31:02;;;;;;;4.27;3.33;;;0.50;99.90;;;;;;5035421;28;20175;-52
2024/01/05 11:33:48;;;;;;;5.23;3.73;;;0.40;99.90;;;;;;5035210;28;20509;-51
2024/01/05 11:36:33;;;;;;;7.20;4.17;;;0.50;99.90;;;;;;5015281;28;20415;-52
2024/01/05 11:38:59;;;;;;;7.20;4.07;;;0.40;99.90;;;;;;5034513;28;20477;-51
2024/01/05 11:41:25;;;;;;;7.50;4.00;;;0.40;99.90;;;;;;5034381;28;20446;-51
2024/01/05 11:43:51;;;;;;;8.57;3.63;;;0.50;1.00;;;;;;5032844;28;20183;-51
2024/01/05 11:46:17;;;;;;;6.93;4.47;;;0.50;1.00;;;;;;5034876;28;20183;-51
2024/01/05 11:48:46;;;;;;;7.00;4.20;;;0.50;68.70;;;;;;5034468;28;20484;-52
2024/01/05 11:51:12;;;;;;;9.63;4.23;;;0.60;99.90;;;;;;5034150;28;20438;-52
2024/01/05 11:53:38;;;;;;;5.97;4.30;;;0.70;99.90;;;;;;5033378;28;20797;-52
2024/01/05 11:56:17;;;;;;;8.83;4.57;;;0.70;99.90;;;;;;5034846;28;20183;-52
2024/01/05 11:58:43;;;;;;;5.00;3.70;;;0.50;1.00;;;;;;5034406;28;20462;-51
2024/01/05 12:01:12;;;;;;;6.87;4.43;;;0.40;99.90;;;;;;5031397;28;20462;-52
2024/01/05 12:03:39;;;;;;;5.77;3.93;;;0.40;1.00;;;;;;5032640;28;20480;-52
2024/01/05 12:06:11;;;;;;;6.20;4.60;;;0.30;1.00;;;;;;5034286;28;20562;-52
2024/01/05 12:08:38;;;;;;;6.60;3.90;;;0.30;1.00;;;;;;5034159;28;20477;-51
2024/01/05 12:11:05;;;;;;;3.90;3.43;;;0.30;99.90;;;;;;5034420;28;20422;-51
2024/01/05 12:13:33;;;;;;;6.30;3.90;;;0.20;99.90;;;;;;5033071;28;20491;-51
2024/01/05 12:16:00;;;;;;;4.97;3.60;;;0.20;1.00;;;;;;5033397;28;20929;-51
2024/01/05 12:18:30;;;;;;;6.13;3.70;;;0.20;99.90;;;;;;5032742;28;20836;-51
2024/01/05 12:20:57;;;;;;;5.40;4.00;;;0.20;23.60;;;;;;5034242;28;20464;-50
2024/01/05 12:23:24;;;;;;;4.03;3.50;;;0.30;1.00;;;;;;5033349;28;20442;-51
2024/01/05 12:25:59;;;;;;;6.90;4.20;;;0.20;1.00;;;;;;5033038;28;20531;-51
2024/01/05 12:28:27;;;;;;;6.03;4.07;;;0.30;45.90;;;;;;5034009;28;20426;-51
2024/01/05 12:30:53;;;;;;;5.87;3.70;;;0.30;1.00;;;;;;5033548;28;20918;-51
2024/01/05 12:33:19;;;;;;;6.30;4.03;;;0.20;52.20;;;;;;5030489;28;20426;-51
2024/01/05 12:35:48;;;;;;;5.03;3.70;;;0.20;99.90;;;;;;5033830;28;20441;-51
2024/01/05 12:38:28;;;;;;;6.27;4.10;;;0.30;99.90;;;;;;5033922;28;20450;-51
2024/01/05 12:41:10;;;;;;;7.20;4.33;;;0.30;99.90;;;;;;5033827;28;20468;-51
2024/01/05 12:43:37;;;;;;;5.70;4.30;;;0.30;1.00;;;;;;5033234;28;20848;-52
2024/01/05 12:46:06;;;;;;;4.50;3.67;;;0.30;1.00;;;;;;5033284;28;20938;-51
2024/01/05 12:48:32;;;;;;;7.13;5.50;;;0.30;99.90;;;;;;5034113;28;20852;-51
2024/01/05 12:51:05;;;;;;;27.80;15.80;;;0.30;99.90;;;;;;5031936;28;20458;-51
2024/01/05 12:53:31;;;;;;;12.20;7.27;;;0.30;99.90;;;;;;5030432;28;20485;-52